Terminal Aerodrome Forecast
Issued by NWS Chicago, IL

Home | Current Version | Previous Version | Text Only | Print | Product List | Glossary Off
Versions: 1 2 3 4 5 6 7 8 9 10 11 12 13 14 15 16 17 18 19 20 21 22 23 24 25 26 27 28 29 30 31 32 33 34 35 36 37 38

000
FTUS43 KLOT 241900 AAA
TAFRFD
TAF AMD
KRFD 241953Z 2420/2518 26020G32KT 3SM -SN BLSN BKN011 OVC015
      TEMPO 2420/2421 1SM -SN BLSN OVC009
     FM242200 26021G32KT 5SM -SN BKN014 OVC020
     FM250100 26018G28KT P6SM -SHSN SCT015 OVC022
     FM250600 27013KT P6SM BKN025 OVC035
     FM251400 27010KT P6SM SCT020 BKN035=

USA.gov is the U.S. government's official web portal to all federal, state and local government web resources and services.